sensor_id;sensor_type;location;lat;lon;timestamp;pressure;altitude;pressure_sealevel;temperature;humidity
49216;BME280;45943;53.148;8.204;2024-01-30T00:02:11;102766.84;;;10.31;100.00
49216;BME280;45943;53.148;8.204;2024-01-30T00:04:37;102761.63;;;10.28;100.00
49216;BME280;45943;53.148;8.204;2024-01-30T00:07:03;102763.53;;;10.26;100.00
49216;BME280;45943;53.148;8.204;2024-01-30T00:09:29;102759.22;;;10.22;100.00
49216;BME280;45943;53.148;8.204;2024-01-30T00:11:55;102762.91;;;10.19;100.00
49216;BME280;45943;53.148;8.204;2024-01-30T00:14:22;102754.84;;;10.19;100.00
49216;BME280;45943;53.148;8.204;2024-01-30T00:16:48;102755.66;;;10.21;100.00
49216;BME280;45943;53.148;8.204;2024-01-30T00:19:14;102754.00;;;10.19;100.00
49216;BME280;45943;53.148;8.204;2024-01-30T00:21:40;102749.50;;;10.19;100.00
49216;BME280;45943;53.148;8.204;2024-01-30T00:24:07;102743.56;;;10.13;100.00
49216;BME280;45943;53.148;8.204;2024-01-30T00:26:33;102753.50;;;10.11;100.00
49216;BME280;45943;53.148;8.204;2024-01-30T00:28:59;102747.69;;;10.01;100.00
49216;BME280;45943;53.148;8.204;2024-01-30T00:31:25;102749.66;;;9.97;100.00
49216;BME280;45943;53.148;8.204;2024-01-30T00:33:52;102740.59;;;10.00;100.00
49216;BME280;45943;53.148;8.204;2024-01-30T00:36:18;102729.94;;;9.98;100.00
49216;BME280;45943;53.148;8.204;2024-01-30T00:38:44;102731.06;;;9.94;100.00
49216;BME280;45943;53.148;8.204;2024-01-30T00:41:10;102737.47;;;9.90;100.00
49216;BME280;45943;53.148;8.204;2024-01-30T00:43:36;102733.84;;;9.91;100.00
49216;BME280;45943;53.148;8.204;2024-01-30T00:46:02;102733.22;;;9.86;100.00
49216;BME280;45943;53.148;8.204;2024-01-30T00:48:29;102735.75;;;9.89;100.00
49216;BME280;45943;53.148;8.204;2024-01-30T00:50:55;102741.25;;;9.86;100.00
49216;BME280;45943;53.148;8.204;2024-01-30T00:53:21;102728.81;;;9.85;100.00
49216;BME280;45943;53.148;8.204;2024-01-30T00:55:47;102726.41;;;9.79;100.00
49216;BME280;45943;53.148;8.204;2024-01-30T00:58:13;102732.88;;;9.75;100.00
49216;BME280;45943;53.148;8.204;2024-01-30T01:00:39;102722.25;;;9.72;100.00
49216;BME280;45943;53.148;8.204;2024-01-30T01:03:05;102711.00;;;9.65;100.00
49216;BME280;45943;53.148;8.204;2024-01-30T01:05:31;102719.81;;;9.67;100.00
49216;BME280;45943;53.148;8.204;2024-01-30T01:07:57;102718.28;;;9.62;100.00
49216;BME280;45943;53.148;8.204;2024-01-30T01:10:23;102712.22;;;9.58;100.00
49216;BME280;45943;53.148;8.204;2024-01-30T01:12:49;102712.41;;;9.54;100.00
49216;BME280;45943;53.148;8.204;2024-01-30T01:15:15;102710.38;;;9.59;100.00
49216;BME280;45943;53.148;8.204;2024-01-30T01:17:41;102717.03;;;9.50;100.00
49216;BME280;45943;53.148;8.204;2024-01-30T01:20:08;102718.66;;;9.54;100.00
49216;BME280;45943;53.148;8.204;2024-01-30T01:22:34;102713.31;;;9.54;100.00
49216;BME280;45943;53.148;8.204;2024-01-30T01:25:00;102717.50;;;9.60;100.00
49216;BME280;45943;53.148;8.204;2024-01-30T01:27:26;102708.50;;;9.61;100.00
49216;BME280;45943;53.148;8.204;2024-01-30T01:29:52;102721.69;;;9.65;100.00
49216;BME280;45943;53.148;8.204;2024-01-30T01:32:19;102721.69;;;9.65;100.00
49216;BME280;45943;53.148;8.204;2024-01-30T01:34:45;102715.75;;;9.59;100.00
49216;BME280;45943;53.148;8.204;2024-01-30T01:37:11;102717.63;;;9.57;100.00
49216;BME280;45943;53.148;8.204;2024-01-30T01:39:37;102720.41;;;9.55;100.00
49216;BME280;45943;53.148;8.204;2024-01-30T01:42:03;102714.28;;;9.52;100.00
49216;BME280;45943;53.148;8.204;2024-01-30T01:44:30;102709.72;;;9.54;100.00
49216;BME280;45943;53.148;8.204;2024-01-30T01:46:56;102718.69;;;9.53;100.00
49216;BME280;45943;53.148;8.204;2024-01-30T01:49:26;102721.59;;;9.48;100.00
49216;BME280;45943;53.148;8.204;2024-01-30T01:51:54;102712.69;;;9.47;100.00
49216;BME280;45943;53.148;8.204;2024-01-30T01:54:22;102712.41;;;9.54;100.00
49216;BME280;45943;53.148;8.204;2024-01-30T01:56:51;102716.03;;;9.53;100.00
49216;BME280;45943;53.148;8.204;2024-01-30T01:59:18;102708.13;;;9.49;100.00
49216;BME280;45943;53.148;8.204;2024-01-30T02:01:46;102700.44;;;9.42;100.00
49216;BME280;45943;53.148;8.204;2024-01-30T02:04:15;102690.91;;;9.36;100.00
49216;BME280;45943;53.148;8.204;2024-01-30T02:06:42;102697.41;;;9.31;100.00
49216;BME280;45943;53.148;8.204;2024-01-30T02:09:09;102695.72;;;9.28;100.00
49216;BME280;45943;53.148;8.204;2024-01-30T02:11:35;102686.84;;;9.28;100.00
49216;BME280;45943;53.148;8.204;2024-01-30T02:14:04;102682.19;;;9.31;100.00
49216;BME280;45943;53.148;8.204;2024-01-30T02:16:31;102678.88;;;9.26;100.00
49216;BME280;45943;53.148;8.204;2024-01-30T02:18:58;102680.47;;;9.30;100.00
49216;BME280;45943;53.148;8.204;2024-01-30T02:21:24;102674.25;;;9.30;100.00
49216;BME280;45943;53.148;8.204;2024-01-30T02:23:50;102675.19;;;9.29;100.00
49216;BME280;45943;53.148;8.204;2024-01-30T02:26:17;102672.50;;;9.29;100.00
49216;BME280;45943;53.148;8.204;2024-01-30T02:28:43;102672.56;;;9.27;100.00
49216;BME280;45943;53.148;8.204;2024-01-30T02:31:09;102665.59;;;9.23;100.00
49216;BME280;45943;53.148;8.204;2024-01-30T02:33:35;102667.22;;;9.27;100.00
49216;BME280;45943;53.148;8.204;2024-01-30T02:36:01;102662.44;;;9.34;100.00
49216;BME280;45943;53.148;8.204;2024-01-30T02:38:28;102661.53;;;9.35;100.00
49216;BME280;45943;53.148;8.204;2024-01-30T02:40:54;102650.41;;;9.24;100.00
49216;BME280;45943;53.148;8.204;2024-01-30T02:43:21;102654.53;;;9.31;100.00
49216;BME280;45943;53.148;8.204;2024-01-30T02:45:47;102651.00;;;9.30;100.00
49216;BME280;45943;53.148;8.204;2024-01-30T02:48:13;102652.16;;;9.25;100.00
49216;BME280;45943;53.148;8.204;2024-01-30T02:50:39;102649.25;;;9.29;100.00
49216;BME280;45943;53.148;8.204;2024-01-30T02:53:05;102646.66;;;9.28;100.00
49216;BME280;45943;53.148;8.204;2024-01-30T02:55:31;102642.19;;;9.28;100.00
49216;BME280;45943;53.148;8.204;2024-01-30T02:57:57;102637.88;;;9.24;100.00
49216;BME280;45943;53.148;8.204;2024-01-30T03:00:23;102638.81;;;9.23;100.00
49216;BME280;45943;53.148;8.204;2024-01-30T03:02:49;102646.94;;;9.22;100.00
49216;BME280;45943;53.148;8.204;2024-01-30T03:05:15;102638.81;;;9.23;100.00
49216;BME280;45943;53.148;8.204;2024-01-30T03:07:41;102644.06;;;9.26;100.00
49216;BME280;45943;53.148;8.204;2024-01-30T03:10:07;102645.56;;;9.32;100.00
49216;BME280;45943;53.148;8.204;2024-01-30T03:12:33;102643.75;;;9.32;100.00
49216;BME280;45943;53.148;8.204;2024-01-30T03:14:59;102634.75;;;9.35;100.00
49216;BME280;45943;53.148;8.204;2024-01-30T03:17:25;102636.31;;;9.39;100.00
49216;BME280;45943;53.148;8.204;2024-01-30T03:19:51;102633.56;;;9.40;100.00
49216;BME280;45943;53.148;8.204;2024-01-30T03:22:17;102633.41;;;9.43;100.00
49216;BME280;45943;53.148;8.204;2024-01-30T03:24:43;102627.41;;;9.38;100.00
49216;BME280;45943;53.148;8.204;2024-01-30T03:27:09;102627.25;;;9.41;100.00
49216;BME280;45943;53.148;8.204;2024-01-30T03:29:35;102633.56;;;9.40;100.00
49216;BME280;45943;53.148;8.204;2024-01-30T03:32:01;102627.06;;;9.46;100.00
49216;BME280;45943;53.148;8.204;2024-01-30T03:34:29;102622.66;;;9.45;100.00
49216;BME280;45943;53.148;8.204;2024-01-30T03:36:55;102618.00;;;9.48;100.00
49216;BME280;45943;53.148;8.204;2024-01-30T03:39:22;102618.16;;;9.45;100.00
49216;BME280;45943;53.148;8.204;2024-01-30T03:41:49;102620.25;;;9.39;100.00
49216;BME280;45943;53.148;8.204;2024-01-30T03:44:15;102604.75;;;9.45;100.00
49216;BME280;45943;53.148;8.204;2024-01-30T03:46:41;102611.13;;;9.43;100.00
49216;BME280;45943;53.148;8.204;2024-01-30T03:49:07;102602.16;;;9.44;100.00
49216;BME280;45943;53.148;8.204;2024-01-30T03:51:34;102605.75;;;9.43;100.00
49216;BME280;45943;53.148;8.204;2024-01-30T03:54:01;102602.22;;;9.42;100.00
49216;BME280;45943;53.148;8.204;2024-01-30T03:56:27;102599.53;;;9.42;100.00
49216;BME280;45943;53.148;8.204;2024-01-30T03:58:53;102593.53;;;9.37;100.00
49216;BME280;45943;53.148;8.204;2024-01-30T04:01:19;102599.50;;;9.44;100.00
49216;BME280;45943;53.148;8.204;2024-01-30T04:03:45;102594.34;;;9.39;100.00
49216;BME280;45943;53.148;8.204;2024-01-30T04:06:11;102592.44;;;9.41;100.00
49216;BME280;45943;53.148;8.204;2024-01-30T04:08:37;102587.88;;;9.43;100.00
49216;BME280;45943;53.148;8.204;2024-01-30T04:11:06;102584.56;;;9.38;100.00
49216;BME280;45943;53.148;8.204;2024-01-30T04:13:33;102583.69;;;9.38;100.00
49216;BME280;45943;53.148;8.204;2024-01-30T04:16:02;102586.13;;;9.42;100.00
49216;BME280;45943;53.148;8.204;2024-01-30T04:18:28;102583.63;;;9.39;100.00
49216;BME280;45943;53.148;8.204;2024-01-30T04:20:55;102582.69;;;9.40;100.00
49216;BME280;45943;53.148;8.204;2024-01-30T04:23:21;102580.00;;;9.40;100.00
49216;BME280;45943;53.148;8.204;2024-01-30T04:25:47;102573.78;;;9.40;100.00
49216;BME280;45943;53.148;8.204;2024-01-30T04:28:13;102574.94;;;9.34;100.00
49216;BME280;45943;53.148;8.204;2024-01-30T04:30:39;102571.88;;;9.42;100.00
49216;BME280;45943;53.148;8.204;2024-01-30T04:33:05;102576.16;;;9.46;100.00
49216;BME280;45943;53.148;8.204;2024-01-30T04:35:32;102577.16;;;9.43;100.00
49216;BME280;45943;53.148;8.204;2024-01-30T04:37:58;102572.63;;;9.45;100.00
49216;BME280;45943;53.148;8.204;2024-01-30T04:40:24;102578.09;;;9.42;100.00
49216;BME280;45943;53.148;8.204;2024-01-30T04:42:50;102584.63;;;9.37;100.00
49216;BME280;45943;53.148;8.204;2024-01-30T04:45:16;102583.63;;;9.39;100.00
49216;BME280;45943;53.148;8.204;2024-01-30T04:47:42;102582.59;;;9.42;100.00
49216;BME280;45943;53.148;8.204;2024-01-30T04:50:08;102580.88;;;9.41;100.00
49216;BME280;45943;53.148;8.204;2024-01-30T04:52:35;102567.78;;;9.35;100.00
49216;BME280;45943;53.148;8.204;2024-01-30T04:55:01;102574.78;;;9.37;100.00
49216;BME280;45943;53.148;8.204;2024-01-30T04:57:27;102572.97;;;9.38;100.00
49216;BME280;45943;53.148;8.204;2024-01-30T04:59:53;102567.72;;;9.36;100.00
49216;BME280;45943;53.148;8.204;2024-01-30T05:02:19;102572.03;;;9.39;100.00
49216;BME280;45943;53.148;8.204;2024-01-30T05:04:45;102574.63;;;9.40;100.00
49216;BME280;45943;53.148;8.204;2024-01-30T05:07:11;102574.63;;;9.40;100.00
49216;BME280;45943;53.148;8.204;2024-01-30T05:09:37;102570.81;;;9.46;100.00
49216;BME280;45943;53.148;8.204;2024-01-30T05:12:03;102564.59;;;9.45;100.00
49216;BME280;45943;53.148;8.204;2024-01-30T05:14:29;102566.03;;;9.34;100.00
49216;BME280;45943;53.148;8.204;2024-01-30T05:16:56;102567.19;;;9.47;100.00
49216;BME280;45943;53.148;8.204;2024-01-30T05:19:22;102570.38;;;9.55;100.00
49216;BME280;45943;53.148;8.204;2024-01-30T05:21:49;102563.41;;;9.51;100.00
49216;BME280;45943;53.148;8.204;2024-01-30T05:24:15;102572.38;;;9.50;100.00
49216;BME280;45943;53.148;8.204;2024-01-30T05:26:41;102571.69;;;9.46;100.00
49216;BME280;45943;53.148;8.204;2024-01-30T05:29:07;102574.34;;;9.46;100.00
49216;BME280;45943;53.148;8.204;2024-01-30T05:31:33;102569.09;;;9.45;100.00
49216;BME280;45943;53.148;8.204;2024-01-30T05:34:00;102566.44;;;9.43;100.00
49216;BME280;45943;53.148;8.204;2024-01-30T05:36:26;102573.06;;;9.36;100.00
49216;BME280;45943;53.148;8.204;2024-01-30T05:38:52;102573.84;;;9.38;100.00
49216;BME280;45943;53.148;8.204;2024-01-30T05:41:19;102573.78;;;9.40;100.00
49216;BME280;45943;53.148;8.204;2024-01-30T05:43:46;102568.50;;;9.38;100.00
49216;BME280;45943;53.148;8.204;2024-01-30T05:46:13;102558.41;;;9.43;100.00
49216;BME280;45943;53.148;8.204;2024-01-30T05:48:39;102562.13;;;9.41;100.00
49216;BME280;45943;53.148;8.204;2024-01-30T05:51:06;102561.91;;;9.45;100.00
49216;BME280;45943;53.148;8.204;2024-01-30T05:53:33;102561.25;;;9.40;100.00
49216;BME280;45943;53.148;8.204;2024-01-30T05:56:00;102552.25;;;9.41;100.00
49216;BME280;45943;53.148;8.204;2024-01-30T05:58:27;102557.69;;;9.40;100.00
49216;BME280;45943;53.148;8.204;2024-01-30T06:00:53;102553.06;;;9.43;100.00
49216;BME280;45943;53.148;8.204;2024-01-30T06:03:19;102550.47;;;9.42;100.00
49216;BME280;45943;53.148;8.204;2024-01-30T06:05:45;102558.28;;;9.46;100.00
49216;BME280;45943;53.148;8.204;2024-01-30T06:08:11;102559.94;;;9.49;100.00
49216;BME280;45943;53.148;8.204;2024-01-30T06:10:37;102558.91;;;9.52;100.00
49216;BME280;45943;53.148;8.204;2024-01-30T06:13:04;102563.19;;;9.56;100.00
49216;BME280;45943;53.148;8.204;2024-01-30T06:15:30;102555.25;;;9.54;100.00
49216;BME280;45943;53.148;8.204;2024-01-30T06:17:58;102557.09;;;9.52;100.00
49216;BME280;45943;53.148;8.204;2024-01-30T06:20:24;102551.91;;;9.49;100.00
49216;BME280;45943;53.148;8.204;2024-01-30T06:22:50;102540.31;;;9.48;100.00
49216;BME280;45943;53.148;8.204;2024-01-30T06:25:16;102538.75;;;9.44;100.00
49216;BME280;45943;53.148;8.204;2024-01-30T06:27:43;102530.06;;;9.39;100.00
49216;BME280;45943;53.148;8.204;2024-01-30T06:30:09;102539.81;;;9.40;100.00
49216;BME280;45943;53.148;8.204;2024-01-30T06:32:36;102533.41;;;9.44;100.00
49216;BME280;45943;53.148;8.204;2024-01-30T06:35:02;102540.56;;;9.44;100.00
49216;BME280;45943;53.148;8.204;2024-01-30T06:37:29;102526.59;;;9.37;100.00
49216;BME280;45943;53.148;8.204;2024-01-30T06:39:55;102523.75;;;9.40;100.00
49216;BME280;45943;53.148;8.204;2024-01-30T06:42:21;102532.66;;;9.41;100.00
49216;BME280;45943;53.148;8.204;2024-01-30T06:44:47;102522.03;;;9.39;100.00
49216;BME280;45943;53.148;8.204;2024-01-30T06:47:13;102534.63;;;9.37;100.00
49216;BME280;45943;53.148;8.204;2024-01-30T06:49:39;102533.88;;;9.34;100.00
49216;BME280;45943;53.148;8.204;2024-01-30T06:52:07;102524.06;;;9.34;100.00
49216;BME280;45943;53.148;8.204;2024-01-30T06:54:34;102526.09;;;9.29;100.00
49216;BME280;45943;53.148;8.204;2024-01-30T06:57:00;102535.94;;;9.29;100.00
49216;BME280;45943;53.148;8.204;2024-01-30T06:59:26;102537.16;;;9.22;100.00
49216;BME280;45943;53.148;8.204;2024-01-30T07:01:52;102545.09;;;9.23;100.00
49216;BME280;45943;53.148;8.204;2024-01-30T07:04:18;102540.63;;;9.24;100.00
49216;BME280;45943;53.148;8.204;2024-01-30T07:06:44;102540.69;;;9.22;100.00
49216;BME280;45943;53.148;8.204;2024-01-30T07:09:10;102534.72;;;9.17;100.00
49216;BME280;45943;53.148;8.204;2024-01-30T07:11:37;102522.13;;;9.19;100.00
49216;BME280;45943;53.148;8.204;2024-01-30T07:14:03;102517.91;;;9.13;100.00
49216;BME280;45943;53.148;8.204;2024-01-30T07:16:30;102522.13;;;9.19;100.00
49216;BME280;45943;53.148;8.204;2024-01-30T07:18:56;102522.03;;;9.20;100.00
49216;BME280;45943;53.148;8.204;2024-01-30T07:21:22;102522.53;;;9.29;100.00
49216;BME280;45943;53.148;8.204;2024-01-30T07:23:56;102522.31;;;9.33;100.00
49216;BME280;45943;53.148;8.204;2024-01-30T07:26:23;102513.41;;;9.33;100.00
49216;BME280;45943;53.148;8.204;2024-01-30T07:28:49;102517.69;;;9.37;100.00
49216;BME280;45943;53.148;8.204;2024-01-30T07:31:15;102525.28;;;9.27;100.00
49216;BME280;45943;53.148;8.204;2024-01-30T07:33:41;102530.28;;;9.35;100.00
49216;BME280;45943;53.148;8.204;2024-01-30T07:36:07;102528.25;;;9.40;100.00
49216;BME280;45943;53.148;8.204;2024-01-30T07:38:34;102537.06;;;9.42;100.00
49216;BME280;45943;53.148;8.204;2024-01-30T07:41:00;102542.28;;;9.45;100.00
49216;BME280;45943;53.148;8.204;2024-01-30T07:43:26;102534.69;;;9.55;100.00
49216;BME280;45943;53.148;8.204;2024-01-30T07:45:52;102531.13;;;9.54;100.00
49216;BME280;45943;53.148;8.204;2024-01-30T07:48:18;102527.34;;;9.58;100.00
49216;BME280;45943;53.148;8.204;2024-01-30T07:50:44;102537.69;;;9.66;100.00
49216;BME280;45943;53.148;8.204;2024-01-30T07:53:10;102530.59;;;9.65;100.00
49216;BME280;45943;53.148;8.204;2024-01-30T07:55:36;102530.66;;;9.63;100.00
49216;BME280;45943;53.148;8.204;2024-01-30T07:58:02;102528.94;;;9.80;100.00
49216;BME280;45943;53.148;8.204;2024-01-30T08:00:30;102542.91;;;9.86;100.00
49216;BME280;45943;53.148;8.204;2024-01-30T08:02:56;102530.53;;;9.84;100.00
49216;BME280;45943;53.148;8.204;2024-01-30T08:05:22;102545.13;;;9.95;100.00
49216;BME280;45943;53.148;8.204;2024-01-30T08:07:49;102538.50;;;10.02;100.00
49216;BME280;45943;53.148;8.204;2024-01-30T08:10:15;102534.72;;;10.06;100.00
49216;BME280;45943;53.148;8.204;2024-01-30T08:12:43;102533.88;;;10.06;100.00
49216;BME280;45943;53.148;8.204;2024-01-30T08:15:11;102523.31;;;10.03;100.00
49216;BME280;45943;53.148;8.204;2024-01-30T08:17:38;102524.09;;;10.05;100.00
49216;BME280;45943;53.148;8.204;2024-01-30T08:20:05;102525.66;;;10.09;100.00
49216;BME280;45943;53.148;8.204;2024-01-30T08:22:32;102522.66;;;10.15;100.00
49216;BME280;45943;53.148;8.204;2024-01-30T08:24:58;102515.41;;;10.17;100.00
49216;BME280;45943;53.148;8.204;2024-01-30T08:27:24;102515.78;;;10.10;100.00
49216;BME280;45943;53.148;8.204;2024-01-30T08:29:51;102519.81;;;10.18;100.00
49216;BME280;45943;53.148;8.204;2024-01-30T08:32:17;102512.63;;;10.19;100.00
49216;BME280;45943;53.148;8.204;2024-01-30T08:34:43;102512.34;;;10.25;100.00
49216;BME280;45943;53.148;8.204;2024-01-30T08:37:09;102511.41;;;10.26;100.00
49216;BME280;45943;53.148;8.204;2024-01-30T08:39:35;102506.44;;;10.36;100.00
49216;BME280;45943;53.148;8.204;2024-01-30T08:42:01;102514.06;;;10.43;100.00
49216;BME280;45943;53.148;8.204;2024-01-30T08:44:27;102499.53;;;10.47;100.00
49216;BME280;45943;53.148;8.204;2024-01-30T08:46:53;102505.84;;;10.46;100.00
49216;BME280;45943;53.148;8.204;2024-01-30T08:49:19;102517.91;;;10.55;100.00
49216;BME280;45943;53.148;8.204;2024-01-30T08:51:46;102509.50;;;10.61;100.00
49216;BME280;45943;53.148;8.204;2024-01-30T08:54:12;102512.56;;;10.71;100.00
49216;BME280;45943;53.148;8.204;2024-01-30T08:56:38;102504.50;;;10.71;100.00
49216;BME280;45943;53.148;8.204;2024-01-30T08:59:05;102500.38;;;10.81;100.00
49216;BME280;45943;53.148;8.204;2024-01-30T09:01:31;102494.09;;;10.82;100.00
49216;BME280;45943;53.148;8.204;2024-01-30T09:03:57;102495.72;;;10.84;100.00
49216;BME280;45943;53.148;8.204;2024-01-30T09:06:23;102490.59;;;10.80;100.00
49216;BME280;45943;53.148;8.204;2024-01-30T09:08:50;102488.03;;;10.94;100.00
49216;BME280;45943;53.148;8.204;2024-01-30T09:11:16;102503.94;;;10.97;100.00
49216;BME280;45943;53.148;8.204;2024-01-30T09:13:42;102507.75;;;11.09;100.00
49216;BME280;45943;53.148;8.204;2024-01-30T09:16:09;102513.91;;;11.11;100.00
49216;BME280;45943;53.148;8.204;2024-01-30T09:18:35;102523.56;;;11.15;100.00
49216;BME280;45943;53.148;8.204;2024-01-30T09:21:01;102524.75;;;11.25;100.00
49216;BME280;45943;53.148;8.204;2024-01-30T09:23:27;102534.47;;;11.28;100.00
49216;BME280;45943;53.148;8.204;2024-01-30T09:25:53;102531.88;;;11.26;100.00
49216;BME280;45943;53.148;8.204;2024-01-30T09:28:19;102532.31;;;11.34;100.00
49216;BME280;45943;53.148;8.204;2024-01-30T09:30:45;102540.44;;;11.33;100.00
49216;BME280;45943;53.148;8.204;2024-01-30T09:33:11;102536.53;;;11.38;100.00
49216;BME280;45943;53.148;8.204;2024-01-30T09:35:37;102530.91;;;11.43;100.00
49216;BME280;45943;53.148;8.204;2024-01-30T09:38:03;102536.88;;;11.48;100.00
49216;BME280;45943;53.148;8.204;2024-01-30T09:40:29;102534.19;;;11.48;100.00
49216;BME280;45943;53.148;8.204;2024-01-30T09:42:56;102533.16;;;11.51;100.00
49216;BME280;45943;53.148;8.204;2024-01-30T09:45:24;102535.91;;;11.49;100.00
49216;BME280;45943;53.148;8.204;2024-01-30T09:47:52;102533.84;;;11.54;100.00
49216;BME280;45943;53.148;8.204;2024-01-30T09:50:19;102545.28;;;11.58;100.00
49216;BME280;45943;53.148;8.204;2024-01-30T09:52:46;102544.69;;;11.53;100.00
49216;BME280;45943;53.148;8.204;2024-01-30T09:55:13;102549.44;;;11.47;100.00
49216;BME280;45943;53.148;8.204;2024-01-30T09:57:41;102549.63;;;11.60;100.00
49216;BME280;45943;53.148;8.204;2024-01-30T10:00:07;102551.44;;;11.60;100.00
49216;BME280;45943;53.148;8.204;2024-01-30T10:02:34;102548.31;;;11.67;100.00
49216;BME280;45943;53.148;8.204;2024-01-30T10:05:04;102540.00;;;11.72;100.00
49216;BME280;45943;53.148;8.204;2024-01-30T10:07:30;102539.59;;;11.78;100.00
49216;BME280;45943;53.148;8.204;2024-01-30T10:09:56;102544.13;;;11.77;100.00
49216;BME280;45943;53.148;8.204;2024-01-30T10:12:23;102541.63;;;11.90;100.00
49216;BME280;45943;53.148;8.204;2024-01-30T10:14:51;102542.31;;;11.94;100.00
49216;BME280;45943;53.148;8.204;2024-01-30T10:17:19;102537.69;;;11.96;100.00
49216;BME280;45943;53.148;8.204;2024-01-30T10:19:46;102536.56;;;12.00;100.00
49216;BME280;45943;53.148;8.204;2024-01-30T10:22:13;102539.84;;;12.05;100.00
49216;BME280;45943;53.148;8.204;2024-01-30T10:24:39;102538.88;;;12.06;100.00
49216;BME280;45943;53.148;8.204;2024-01-30T10:27:05;102534.22;;;12.10;100.00
49216;BME280;45943;53.148;8.204;2024-01-30T10:29:32;102528.53;;;12.14;100.00
49216;BME280;45943;53.148;8.204;2024-01-30T10:32:02;102519.59;;;12.14;100.00
49216;BME280;45943;53.148;8.204;2024-01-30T10:34:29;102534.31;;;12.22;100.00
49216;BME280;45943;53.148;8.204;2024-01-30T10:37:09;102525.84;;;12.28;100.00
49216;BME280;45943;53.148;8.204;2024-01-30T10:39:41;102525.78;;;12.30;100.00
49216;BME280;45943;53.148;8.204;2024-01-30T10:42:12;102516.06;;;12.27;100.00
49216;BME280;45943;53.148;8.204;2024-01-30T10:47:52;102517.81;;;12.43;100.00
49216;BME280;45943;53.148;8.204;2024-01-30T10:50:24;102524.19;;;12.42;100.00
49216;BME280;45943;53.148;8.204;2024-01-30T10:52:50;102521.69;;;12.53;100.00
49216;BME280;45943;53.148;8.204;2024-01-30T10:55:18;102519.19;;;12.50;100.00
49216;BME280;45943;53.148;8.204;2024-01-30T10:57:44;102513.81;;;12.50;100.00
49216;BME280;45943;53.148;8.204;2024-01-30T11:00:10;102513.00;;;12.48;100.00
49216;BME280;45943;53.148;8.204;2024-01-30T11:02:42;102511.69;;;12.55;100.00
49216;BME280;45943;53.148;8.204;2024-01-30T11:05:10;102506.59;;;12.64;100.00
49216;BME280;45943;53.148;8.204;2024-01-30T11:07:38;102516.59;;;12.62;100.00
49216;BME280;45943;53.148;8.204;2024-01-30T11:10:08;102526.59;;;12.75;100.00
49216;BME280;45943;53.148;8.204;2024-01-30T11:12:39;102513.22;;;12.73;100.00
49216;BME280;45943;53.148;8.204;2024-01-30T11:15:07;102518.31;;;12.63;100.00
49216;BME280;45943;53.148;8.204;2024-01-30T11:20:16;102516.56;;;12.77;100.00
49216;BME280;45943;53.148;8.204;2024-01-30T11:22:46;102517.44;;;12.77;100.00
49216;BME280;45943;53.148;8.204;2024-01-30T11:25:16;102512.16;;;12.76;100.00
49216;BME280;45943;53.148;8.204;2024-01-30T11:27:45;102517.28;;;12.80;100.00
49216;BME280;45943;53.148;8.204;2024-01-30T11:30:30;102505.63;;;12.80;100.00
49216;BME280;45943;53.148;8.204;2024-01-30T11:33:01;102510.44;;;12.89;100.00
49216;BME280;45943;53.148;8.204;2024-01-30T11:35:35;102513.47;;;12.97;100.00
49216;BME280;45943;53.148;8.204;2024-01-30T11:38:02;102515.25;;;12.98;100.00
49216;BME280;45943;53.148;8.204;2024-01-30T11:40:34;102509.09;;;12.82;100.00
49216;BME280;45943;53.148;8.204;2024-01-30T11:43:02;102520.03;;;12.93;100.00
49216;BME280;45943;53.148;8.204;2024-01-30T11:45:30;102506.38;;;12.96;100.00
49216;BME280;45943;53.148;8.204;2024-01-30T11:47:59;102509.53;;;13.03;100.00
49216;BME280;45943;53.148;8.204;2024-01-30T11:50:27;102504.06;;;13.04;100.00
49216;BME280;45943;53.148;8.204;2024-01-30T11:52:54;102508.84;;;13.13;100.00
49216;BME280;45943;53.148;8.204;2024-01-30T11:55:20;102514.81;;;13.18;100.00
49216;BME280;45943;53.148;8.204;2024-01-30T11:57:49;102510.41;;;13.03;100.00
49216;BME280;45943;53.148;8.204;2024-01-30T12:00:15;102509.72;;;13.14;100.00
49216;BME280;45943;53.148;8.204;2024-01-30T12:02:44;102505.19;;;13.14;100.00
49216;BME280;45943;53.148;8.204;2024-01-30T12:05:18;102501.63;;;13.14;100.00
49216;BME280;45943;53.148;8.204;2024-01-30T12:07:46;102505.06;;;13.16;100.00
49216;BME280;45943;53.148;8.204;2024-01-30T12:10:15;102496.53;;;13.24;100.00
49216;BME280;45943;53.148;8.204;2024-01-30T12:12:42;102496.25;;;13.28;100.00
49216;BME280;45943;53.148;8.204;2024-01-30T12:15:09;102492.28;;;13.34;100.00
49216;BME280;45943;53.148;8.204;2024-01-30T12:17:36;102505.47;;;13.38;100.00
49216;BME280;45943;53.148;8.204;2024-01-30T12:20:05;102500.69;;;13.29;100.00
49216;BME280;45943;53.148;8.204;2024-01-30T12:25:12;102492.38;;;13.32;100.00
49216;BME280;45943;53.148;8.204;2024-01-30T12:27:43;102487.97;;;13.31;100.00
49216;BME280;45943;53.148;8.204;2024-01-30T12:30:10;102499.28;;;13.36;100.00
49216;BME280;45943;53.148;8.204;2024-01-30T12:32:39;102483.97;;;13.37;100.00
49216;BME280;45943;53.148;8.204;2024-01-30T12:35:13;102496.69;;;13.35;100.00
49216;BME280;45943;53.148;8.204;2024-01-30T12:37:41;102490.00;;;13.28;100.00
49216;BME280;45943;53.148;8.204;2024-01-30T12:40:09;102487.00;;;13.32;100.00
49216;BME280;45943;53.148;8.204;2024-01-30T12:42:40;102485.03;;;13.34;100.00
49216;BME280;45943;53.148;8.204;2024-01-30T12:45:11;102488.81;;;13.32;100.00
49216;BME280;45943;53.148;8.204;2024-01-30T12:47:41;102489.56;;;13.34;100.00
49216;BME280;45943;53.148;8.204;2024-01-30T12:50:07;102482.19;;;13.23;100.00
49216;BME280;45943;53.148;8.204;2024-01-30T12:52:34;102484.69;;;13.26;100.00